sensor_id;sensor_type;location;lat;lon;timestamp;pressure;altitude;pressure_sealevel;temperature;humidity
36242;BME280;22283;42.748;12.732;2023-03-13T00:03:15;98282.22;;;5.96;96.78
36242;BME280;22283;42.748;12.732;2023-03-13T00:08:17;98282.06;;;5.99;99.10
36242;BME280;22283;42.748;12.732;2023-03-13T00:13:17;98285.31;;;6.04;96.56
36242;BME280;22283;42.748;12.732;2023-03-13T00:18:18;98273.25;;;6.49;87.55
36242;BME280;22283;42.748;12.732;2023-03-13T00:23:18;98279.72;;;6.90;83.29
36242;BME280;22283;42.748;12.732;2023-03-13T00:28:19;98287.78;;;6.87;84.23
36242;BME280;22283;42.748;12.732;2023-03-13T00:33:20;98288.13;;;6.65;86.39
36242;BME280;22283;42.748;12.732;2023-03-13T00:38:20;98280.06;;;6.53;88.07
36242;BME280;22283;42.748;12.732;2023-03-13T00:43:21;98284.56;;;6.18;92.82
36242;BME280;22283;42.748;12.732;2023-03-13T00:48:22;98286.59;;;5.78;97.46
36242;BME280;22283;42.748;12.732;2023-03-13T00:53:23;98281.91;;;5.50;100.00
36242;BME280;22283;42.748;12.732;2023-03-13T00:58:25;98285.16;;;5.37;100.00
36242;BME280;22283;42.748;12.732;2023-03-13T01:03:26;98287.34;;;5.47;100.00
36242;BME280;22283;42.748;12.732;2023-03-13T01:08:27;98277.69;;;5.47;100.00
36242;BME280;22283;42.748;12.732;2023-03-13T01:13:30;98271.72;;;5.61;100.00
36242;BME280;22283;42.748;12.732;2023-03-13T01:18:33;98274.81;;;5.69;100.00
36242;BME280;22283;42.748;12.732;2023-03-13T01:23:34;98276.88;;;5.80;100.00
36242;BME280;22283;42.748;12.732;2023-03-13T01:28:35;98265.38;;;5.82;99.25
36242;BME280;22283;42.748;12.732;2023-03-13T01:33:36;98271.44;;;5.67;97.83
36242;BME280;22283;42.748;12.732;2023-03-13T01:38:37;98286.16;;;5.70;100.00
36242;BME280;22283;42.748;12.732;2023-03-13T01:43:38;98290.66;;;5.67;99.06
36242;BME280;22283;42.748;12.732;2023-03-13T01:53:45;98287.63;;;5.23;100.00
36242;BME280;22283;42.748;12.732;2023-03-13T01:58:48;98291.25;;;5.55;100.00
36242;BME280;22283;42.748;12.732;2023-03-13T02:03:50;98289.47;;;6.08;100.00
36242;BME280;22283;42.748;12.732;2023-03-13T02:08:55;98289.09;;;6.31;98.20
36242;BME280;22283;42.748;12.732;2023-03-13T02:13:58;98288.59;;;6.40;97.88
36242;BME280;22283;42.748;12.732;2023-03-13T02:19:01;98292.81;;;6.27;99.28
36242;BME280;22283;42.748;12.732;2023-03-13T02:29:13;98304.53;;;5.87;100.00
36242;BME280;22283;42.748;12.732;2023-03-13T02:34:21;98312.09;;;6.10;100.00
36242;BME280;22283;42.748;12.732;2023-03-13T02:39:25;98312.94;;;5.76;99.52
36242;BME280;22283;42.748;12.732;2023-03-13T02:44:27;98335.69;;;5.41;100.00
36242;BME280;22283;42.748;12.732;2023-03-13T02:49:28;98338.41;;;5.39;100.00
36242;BME280;22283;42.748;12.732;2023-03-13T02:54:34;98341.28;;;5.52;100.00
36242;BME280;22283;42.748;12.732;2023-03-13T02:59:36;98360.75;;;5.83;100.00
36242;BME280;22283;42.748;12.732;2023-03-13T03:04:36;98360.13;;;5.60;100.00
36242;BME280;22283;42.748;12.732;2023-03-13T03:09:37;98359.88;;;5.48;100.00
36242;BME280;22283;42.748;12.732;2023-03-13T03:14:43;98356.31;;;5.49;100.00
36242;BME280;22283;42.748;12.732;2023-03-13T03:19:44;98361.09;;;5.58;100.00
36242;BME280;22283;42.748;12.732;2023-03-13T03:24:45;98362.88;;;5.57;100.00
36242;BME280;22283;42.748;12.732;2023-03-13T03:29:46;98369.59;;;5.46;100.00
36242;BME280;22283;42.748;12.732;2023-03-13T03:34:46;98360.97;;;5.61;100.00
36242;BME280;22283;42.748;12.732;2023-03-13T03:39:47;98358.19;;;5.64;100.00
36242;BME280;22283;42.748;12.732;2023-03-13T03:44:48;98363.13;;;5.53;100.00
36242;BME280;22283;42.748;12.732;2023-03-13T03:49:50;98350.41;;;5.26;100.00
36242;BME280;22283;42.748;12.732;2023-03-13T03:54:50;98359.50;;;5.19;100.00
36242;BME280;22283;42.748;12.732;2023-03-13T03:59:52;98361.00;;;5.06;100.00
36242;BME280;22283;42.748;12.732;2023-03-13T04:04:53;98347.13;;;5.04;100.00
36242;BME280;22283;42.748;12.732;2023-03-13T04:10:05;98362.78;;;5.05;100.00
36242;BME280;22283;42.748;12.732;2023-03-13T04:15:12;98350.09;;;4.77;100.00
36242;BME280;22283;42.748;12.732;2023-03-13T04:20:12;98365.19;;;4.72;100.00
36242;BME280;22283;42.748;12.732;2023-03-13T04:25:14;98357.03;;;4.78;100.00
36242;BME280;22283;42.748;12.732;2023-03-13T04:30:16;98365.63;;;5.01;100.00
36242;BME280;22283;42.748;12.732;2023-03-13T04:35:31;98364.56;;;5.05;100.00
36242;BME280;22283;42.748;12.732;2023-03-13T04:40:50;98363.22;;;5.15;100.00
36242;BME280;22283;42.748;12.732;2023-03-13T04:46:04;98370.28;;;5.13;100.00
36242;BME280;22283;42.748;12.732;2023-03-13T04:51:31;98360.94;;;5.07;100.00
36242;BME280;22283;42.748;12.732;2023-03-13T04:57:07;98372.16;;;5.11;100.00
36242;BME280;22283;42.748;12.732;2023-03-13T05:02:16;98369.00;;;5.03;100.00
36242;BME280;22283;42.748;12.732;2023-03-13T05:07:35;98375.41;;;4.97;100.00
36242;BME280;22283;42.748;12.732;2023-03-13T05:13:05;98391.22;;;4.96;100.00
36242;BME280;22283;42.748;12.732;2023-03-13T05:18:30;98391.41;;;4.72;100.00
36242;BME280;22283;42.748;12.732;2023-03-13T05:23:41;98396.66;;;4.72;100.00
36242;BME280;22283;42.748;12.732;2023-03-13T05:28:58;98387.28;;;4.66;100.00
36242;BME280;22283;42.748;12.732;2023-03-13T05:34:21;98375.38;;;4.78;100.00
36242;BME280;22283;42.748;12.732;2023-03-13T05:39:47;98393.59;;;4.81;100.00
36242;BME280;22283;42.748;12.732;2023-03-13T05:45:17;98383.91;;;4.83;100.00
36242;BME280;22283;42.748;12.732;2023-03-13T05:50:37;98385.31;;;4.90;100.00
36242;BME280;22283;42.748;12.732;2023-03-13T05:56:03;98392.03;;;4.77;100.00
36242;BME280;22283;42.748;12.732;2023-03-13T06:01:13;98390.06;;;4.82;100.00
36242;BME280;22283;42.748;12.732;2023-03-13T06:06:24;98395.22;;;5.22;100.00
36242;BME280;22283;42.748;12.732;2023-03-13T06:11:27;98403.91;;;5.77;100.00
36242;BME280;22283;42.748;12.732;2023-03-13T06:16:28;98401.94;;;6.34;100.00
36242;BME280;22283;42.748;12.732;2023-03-13T06:21:45;98411.66;;;6.83;98.68
36242;BME280;22283;42.748;12.732;2023-03-13T06:26:47;98417.81;;;7.47;94.54
36242;BME280;22283;42.748;12.732;2023-03-13T06:31:48;98416.91;;;7.94;91.82
36242;BME280;22283;42.748;12.732;2023-03-13T06:36:48;98416.88;;;8.40;89.12
36242;BME280;22283;42.748;12.732;2023-03-13T06:41:49;98414.25;;;8.68;86.94
36242;BME280;22283;42.748;12.732;2023-03-13T06:46:49;98408.59;;;9.03;85.33
36242;BME280;22283;42.748;12.732;2023-03-13T06:51:50;98414.22;;;9.25;84.86
36242;BME280;22283;42.748;12.732;2023-03-13T06:56:51;98408.88;;;9.54;81.38
36242;BME280;22283;42.748;12.732;2023-03-13T07:01:51;98411.63;;;9.79;82.53
36242;BME280;22283;42.748;12.732;2023-03-13T07:06:52;98424.06;;;10.04;80.70
36242;BME280;22283;42.748;12.732;2023-03-13T07:11:52;98428.00;;;10.12;80.12
36242;BME280;22283;42.748;12.732;2023-03-13T07:16:53;98421.59;;;10.28;80.16
36242;BME280;22283;42.748;12.732;2023-03-13T07:21:54;98420.25;;;10.61;79.31
36242;BME280;22283;42.748;12.732;2023-03-13T07:26:56;98441.84;;;10.80;78.25
36242;BME280;22283;42.748;12.732;2023-03-13T07:31:56;98453.41;;;10.79;77.59
36242;BME280;22283;42.748;12.732;2023-03-13T07:36:57;98448.88;;;10.81;79.28
36242;BME280;22283;42.748;12.732;2023-03-13T07:41:58;98458.06;;;11.01;79.96
36242;BME280;22283;42.748;12.732;2023-03-13T07:46:59;98464.72;;;11.20;80.47
36242;BME280;22283;42.748;12.732;2023-03-13T07:52:00;98461.81;;;11.48;77.37
36242;BME280;22283;42.748;12.732;2023-03-13T07:57:01;98466.69;;;11.78;76.35
36242;BME280;22283;42.748;12.732;2023-03-13T08:02:03;98467.72;;;12.01;74.36
36242;BME280;22283;42.748;12.732;2023-03-13T08:07:07;98473.00;;;12.25;70.00
36242;BME280;22283;42.748;12.732;2023-03-13T08:12:08;98467.47;;;12.64;69.33
36242;BME280;22283;42.748;12.732;2023-03-13T08:17:09;98460.66;;;12.95;66.23
36242;BME280;22283;42.748;12.732;2023-03-13T08:22:09;98453.69;;;13.39;63.54
36242;BME280;22283;42.748;12.732;2023-03-13T08:27:10;98464.72;;;13.77;62.19
36242;BME280;22283;42.748;12.732;2023-03-13T08:32:10;98458.72;;;14.08;60.69
36242;BME280;22283;42.748;12.732;2023-03-13T08:37:15;98465.03;;;14.39;61.27
36242;BME280;22283;42.748;12.732;2023-03-13T08:42:15;98451.56;;;14.72;58.41
36242;BME280;22283;42.748;12.732;2023-03-13T08:47:16;98447.94;;;15.04;56.43
36242;BME280;22283;42.748;12.732;2023-03-13T08:52:19;98446.84;;;15.37;55.49
36242;BME280;22283;42.748;12.732;2023-03-13T08:57:21;98445.09;;;15.57;55.28
36242;BME280;22283;42.748;12.732;2023-03-13T09:02:21;98454.19;;;15.85;54.63
36242;BME280;22283;42.748;12.732;2023-03-13T09:07:22;98450.72;;;16.04;54.02
36242;BME280;22283;42.748;12.732;2023-03-13T09:12:23;98437.22;;;16.35;54.70
36242;BME280;22283;42.748;12.732;2023-03-13T09:17:24;98435.78;;;16.50;53.78
36242;BME280;22283;42.748;12.732;2023-03-13T09:22:25;98443.38;;;16.84;51.90
36242;BME280;22283;42.748;12.732;2023-03-13T09:27:26;98427.75;;;17.26;51.66
36242;BME280;22283;42.748;12.732;2023-03-13T09:32:27;98432.38;;;17.61;49.73
36242;BME280;22283;42.748;12.732;2023-03-13T09:37:28;98428.03;;;17.88;49.17
36242;BME280;22283;42.748;12.732;2023-03-13T09:42:41;98424.28;;;18.16;48.41
36242;BME280;22283;42.748;12.732;2023-03-13T09:47:49;98418.72;;;18.28;48.15
36242;BME280;22283;42.748;12.732;2023-03-13T09:52:53;98416.41;;;18.33;47.82
36242;BME280;22283;42.748;12.732;2023-03-13T09:58:02;98421.06;;;18.49;47.06
36242;BME280;22283;42.748;12.732;2023-03-13T10:08:19;98419.31;;;18.57;47.40
36242;BME280;22283;42.748;12.732;2023-03-13T10:13:32;98409.47;;;18.84;47.09
36242;BME280;22283;42.748;12.732;2023-03-13T10:18:35;98409.19;;;18.95;46.32
36242;BME280;22283;42.748;12.732;2023-03-13T10:23:45;98408.34;;;18.95;46.23
36242;BME280;22283;42.748;12.732;2023-03-13T10:28:50;98414.00;;;19.09;44.92
36242;BME280;22283;42.748;12.732;2023-03-13T10:33:50;98402.56;;;19.07;45.47
36242;BME280;22283;42.748;12.732;2023-03-13T10:38:53;98408.81;;;19.16;45.34
36242;BME280;22283;42.748;12.732;2023-03-13T10:44:13;98413.91;;;19.27;44.23
36242;BME280;22283;42.748;12.732;2023-03-13T10:49:22;98409.03;;;19.23;45.38
36242;BME280;22283;42.748;12.732;2023-03-13T10:54:24;98402.38;;;19.35;44.67
36242;BME280;22283;42.748;12.732;2023-03-13T10:59:26;98398.88;;;19.42;44.45
36242;BME280;22283;42.748;12.732;2023-03-13T11:04:34;98397.34;;;19.40;44.83
36242;BME280;22283;42.748;12.732;2023-03-13T11:09:37;98392.53;;;19.52;44.96
36242;BME280;22283;42.748;12.732;2023-03-13T11:14:37;98382.53;;;19.62;44.53
36242;BME280;22283;42.748;12.732;2023-03-13T11:41:23;98351.06;;;19.88;42.06
36242;BME280;22283;42.748;12.732;2023-03-13T11:46:31;98349.56;;;20.27;41.22
36242;BME280;22283;42.748;12.732;2023-03-13T11:52:12;98337.97;;;20.43;41.20
36242;BME280;22283;42.748;12.732;2023-03-13T11:57:23;98334.44;;;20.34;40.29
36242;BME280;22283;42.748;12.732;2023-03-13T12:02:34;98324.88;;;20.39;39.39
36242;BME280;22283;42.748;12.732;2023-03-13T12:08:02;98318.19;;;20.52;39.17
36242;BME280;22283;42.748;12.732;2023-03-13T12:13:18;98312.97;;;20.50;38.02
36242;BME280;22283;42.748;12.732;2023-03-13T12:23:52;98308.06;;;20.54;36.28
36242;BME280;22283;42.748;12.732;2023-03-13T12:34:26;98295.63;;;20.69;35.96
36242;BME280;22283;42.748;12.732;2023-03-13T12:39:36;98279.31;;;20.71;36.83
36242;BME280;22283;42.748;12.732;2023-03-13T12:44:39;98267.22;;;20.75;36.60
36242;BME280;22283;42.748;12.732;2023-03-13T13:00:23;98259.50;;;20.72;39.77
36242;BME280;22283;42.748;12.732;2023-03-13T13:05:25;98253.16;;;20.56;39.49
36242;BME280;22283;42.748;12.732;2023-03-13T13:10:26;98253.78;;;20.67;41.04
36242;BME280;22283;42.748;12.732;2023-03-13T13:15:28;98254.63;;;20.67;41.34
36242;BME280;22283;42.748;12.732;2023-03-13T13:20:38;98260.47;;;20.79;41.18
36242;BME280;22283;42.748;12.732;2023-03-13T13:25:41;98250.75;;;20.70;40.28
36242;BME280;22283;42.748;12.732;2023-03-13T13:30:41;98245.34;;;20.78;42.28
36242;BME280;22283;42.748;12.732;2023-03-13T13:35:43;98250.03;;;20.84;39.78
36242;BME280;22283;42.748;12.732;2023-03-13T13:41:00;98234.97;;;20.67;37.76
36242;BME280;22283;42.748;12.732;2023-03-13T13:46:24;98227.59;;;20.60;39.46
36242;BME280;22283;42.748;12.732;2023-03-13T13:51:28;98225.22;;;20.66;39.52
36242;BME280;22283;42.748;12.732;2023-03-13T13:56:47;98224.22;;;20.58;39.33
36242;BME280;22283;42.748;12.732;2023-03-13T14:07:16;98224.88;;;19.97;39.94
36242;BME280;22283;42.748;12.732;2023-03-13T14:12:33;98218.81;;;19.78;41.06
36242;BME280;22283;42.748;12.732;2023-03-13T14:17:46;98215.47;;;19.76;40.94
36242;BME280;22283;42.748;12.732;2023-03-13T14:22:49;98218.31;;;19.75;41.38
36242;BME280;22283;42.748;12.732;2023-03-13T14:27:51;98210.09;;;19.84;40.41
36242;BME280;22283;42.748;12.732;2023-03-13T14:32:52;98199.16;;;20.02;39.35
36242;BME280;22283;42.748;12.732;2023-03-13T14:38:00;98202.81;;;20.26;40.12
36242;BME280;22283;42.748;12.732;2023-03-13T14:43:02;98190.75;;;20.13;40.86
36242;BME280;22283;42.748;12.732;2023-03-13T14:48:19;98183.22;;;20.09;41.27
36242;BME280;22283;42.748;12.732;2023-03-13T14:53:21;98187.28;;;19.80;41.35
36242;BME280;22283;42.748;12.732;2023-03-13T14:58:28;98180.72;;;19.83;42.07
36242;BME280;22283;42.748;12.732;2023-03-13T15:03:31;98180.41;;;19.70;40.59
36242;BME280;22283;42.748;12.732;2023-03-13T15:08:34;98189.81;;;19.65;40.11
36242;BME280;22283;42.748;12.732;2023-03-13T15:13:36;98172.66;;;19.58;41.17
36242;BME280;22283;42.748;12.732;2023-03-13T15:18:36;98168.31;;;19.49;42.93
36242;BME280;22283;42.748;12.732;2023-03-13T15:23:38;98161.28;;;19.48;43.30
36242;BME280;22283;42.748;12.732;2023-03-13T15:28:38;98153.56;;;19.37;43.01
36242;BME280;22283;42.748;12.732;2023-03-13T15:33:40;98138.63;;;19.34;42.94
36242;BME280;22283;42.748;12.732;2023-03-13T15:38:42;98125.53;;;19.31;43.08
36242;BME280;22283;42.748;12.732;2023-03-13T15:43:42;98121.03;;;19.56;43.78
36242;BME280;22283;42.748;12.732;2023-03-13T15:48:43;98123.03;;;19.54;45.21
36242;BME280;22283;42.748;12.732;2023-03-13T15:53:44;98127.22;;;19.57;45.47
36242;BME280;22283;42.748;12.732;2023-03-13T15:58:46;98126.72;;;19.53;45.22
36242;BME280;22283;42.748;12.732;2023-03-13T16:03:47;98119.19;;;19.49;45.23
36242;BME280;22283;42.748;12.732;2023-03-13T16:08:47;98118.84;;;19.19;46.52
36242;BME280;22283;42.748;12.732;2023-03-13T16:13:48;98118.97;;;18.85;45.87
36242;BME280;22283;42.748;12.732;2023-03-13T16:18:51;98128.72;;;18.52;46.93
36242;BME280;22283;42.748;12.732;2023-03-13T16:23:52;98122.44;;;18.27;47.95
36242;BME280;22283;42.748;12.732;2023-03-13T16:28:53;98117.00;;;18.10;48.12
36242;BME280;22283;42.748;12.732;2023-03-13T16:33:55;98117.88;;;17.85;48.82
36242;BME280;22283;42.748;12.732;2023-03-13T16:39:00;98121.78;;;17.73;48.97
36242;BME280;22283;42.748;12.732;2023-03-13T16:44:01;98129.88;;;17.55;48.90
36242;BME280;22283;42.748;12.732;2023-03-13T16:49:06;98131.56;;;17.38;48.58
36242;BME280;22283;42.748;12.732;2023-03-13T16:54:07;98128.31;;;17.08;49.40
36242;BME280;22283;42.748;12.732;2023-03-13T16:59:20;98121.91;;;16.83;50.43
36242;BME280;22283;42.748;12.732;2023-03-13T17:04:22;98128.84;;;16.66;50.58
36242;BME280;22283;42.748;12.732;2023-03-13T17:09:23;98127.69;;;16.51;50.62
36242;BME280;22283;42.748;12.732;2023-03-13T17:14:23;98120.19;;;16.37;50.94
36242;BME280;22283;42.748;12.732;2023-03-13T17:19:24;98119.16;;;16.20;51.50
36242;BME280;22283;42.748;12.732;2023-03-13T17:24:25;98126.78;;;16.05;51.91
36242;BME280;22283;42.748;12.732;2023-03-13T17:29:25;98134.16;;;15.84;52.54
36242;BME280;22283;42.748;12.732;2023-03-13T17:34:26;98117.91;;;15.77;53.58
36242;BME280;22283;42.748;12.732;2023-03-13T17:39:29;98124.81;;;15.70;53.24
36242;BME280;22283;42.748;12.732;2023-03-13T17:44:30;98124.09;;;15.58;52.98
36242;BME280;22283;42.748;12.732;2023-03-13T17:49:30;98128.19;;;15.53;53.83
36242;BME280;22283;42.748;12.732;2023-03-13T17:54:31;98133.13;;;15.38;57.29
36242;BME280;22283;42.748;12.732;2023-03-13T17:59:32;98138.16;;;15.12;60.01
36242;BME280;22283;42.748;12.732;2023-03-13T18:04:32;98144.91;;;14.87;61.81
36242;BME280;22283;42.748;12.732;2023-03-13T18:09:33;98138.16;;;14.73;62.53
36242;BME280;22283;42.748;12.732;2023-03-13T18:14:33;98143.47;;;14.54;63.78
36242;BME280;22283;42.748;12.732;2023-03-13T18:19:36;98147.00;;;14.33;64.84
36242;BME280;22283;42.748;12.732;2023-03-13T18:24:37;98152.03;;;14.26;64.97
36242;BME280;22283;42.748;12.732;2023-03-13T18:29:38;98142.47;;;14.14;65.23
36242;BME280;22283;42.748;12.732;2023-03-13T18:34:40;98144.50;;;14.01;65.49
36242;BME280;22283;42.748;12.732;2023-03-13T18:39:40;98140.41;;;13.97;66.44
36242;BME280;22283;42.748;12.732;2023-03-13T18:44:41;98149.00;;;13.80;67.16
36242;BME280;22283;42.748;12.732;2023-03-13T18:49:42;98171.59;;;13.64;68.39
36242;BME280;22283;42.748;12.732;2023-03-13T18:54:43;98157.38;;;13.54;69.37
36242;BME280;22283;42.748;12.732;2023-03-13T18:59:44;98136.66;;;13.27;70.37
36242;BME280;22283;42.748;12.732;2023-03-13T19:04:45;98121.44;;;13.18;70.59
36242;BME280;22283;42.748;12.732;2023-03-13T19:09:46;98130.06;;;13.10;72.28
36242;BME280;22283;42.748;12.732;2023-03-13T19:14:47;98133.22;;;13.04;73.01
36242;BME280;22283;42.748;12.732;2023-03-13T19:19:47;98123.25;;;13.17;73.47
36242;BME280;22283;42.748;12.732;2023-03-13T19:24:48;98130.78;;;13.12;74.15
36242;BME280;22283;42.748;12.732;2023-03-13T19:29:49;98126.44;;;13.11;74.78
36242;BME280;22283;42.748;12.732;2023-03-13T19:34:50;98128.91;;;13.03;75.56
36242;BME280;22283;42.748;12.732;2023-03-13T19:39:50;98126.25;;;13.03;75.78
36242;BME280;22283;42.748;12.732;2023-03-13T19:44:51;98139.06;;;12.87;76.95
36242;BME280;22283;42.748;12.732;2023-03-13T19:49:51;98141.28;;;12.82;77.81
36242;BME280;22283;42.748;12.732;2023-03-13T19:54:52;98139.59;;;12.80;77.70
36242;BME280;22283;42.748;12.732;2023-03-13T19:59:55;98124.50;;;12.81;77.52
36242;BME280;22283;42.748;12.732;2023-03-13T20:04:56;98111.09;;;12.83;77.11
36242;BME280;22283;42.748;12.732;2023-03-13T20:09:56;98115.25;;;12.75;77.62
36242;BME280;22283;42.748;12.732;2023-03-13T20:14:58;98110.69;;;12.66;78.09
36242;BME280;22283;42.748;12.732;2023-03-13T20:19:58;98111.59;;;12.88;75.08
36242;BME280;22283;42.748;12.732;2023-03-13T20:24:59;98109.81;;;12.77;75.22
36242;BME280;22283;42.748;12.732;2023-03-13T20:30:00;98116.72;;;12.68;74.86
36242;BME280;22283;42.748;12.732;2023-03-13T20:35:01;98115.78;;;12.58;73.68
36242;BME280;22283;42.748;12.732;2023-03-13T20:40:02;98105.28;;;12.57;72.07
36242;BME280;22283;42.748;12.732;2023-03-13T20:45:05;98089.53;;;12.44;72.43
36242;BME280;22283;42.748;12.732;2023-03-13T20:50:08;98082.28;;;12.35;73.35
36242;BME280;22283;42.748;12.732;2023-03-13T20:55:09;98079.66;;;12.23;74.98
36242;BME280;22283;42.748;12.732;2023-03-13T21:00:10;98076.44;;;12.20;75.84
36242;BME280;22283;42.748;12.732;2023-03-13T21:05:11;98078.13;;;12.21;76.46
36242;BME280;22283;42.748;12.732;2023-03-13T21:10:12;98069.88;;;12.35;75.57
36242;BME280;22283;42.748;12.732;2023-03-13T21:15:13;98071.22;;;12.29;75.03
36242;BME280;22283;42.748;12.732;2023-03-13T21:20:14;98073.50;;;12.34;73.97
36242;BME280;22283;42.748;12.732;2023-03-13T21:25:15;98056.38;;;12.27;73.35
36242;BME280;22283;42.748;12.732;2023-03-13T21:30:18;98057.25;;;12.27;72.00
36242;BME280;22283;42.748;12.732;2023-03-13T21:35:19;98044.31;;;12.34;71.13
36242;BME280;22283;42.748;12.732;2023-03-13T21:40:19;98038.22;;;12.11;72.75
36242;BME280;22283;42.748;12.732;2023-03-13T21:45:20;98025.97;;;11.99;74.62
36242;BME280;22283;42.748;12.732;2023-03-13T21:50:20;98001.28;;;11.87;74.99
36242;BME280;22283;42.748;12.732;2023-03-13T21:55:22;97980.34;;;11.62;76.56
36242;BME280;22283;42.748;12.732;2023-03-13T22:00:22;97985.25;;;11.55;76.97
36242;BME280;22283;42.748;12.732;2023-03-13T22:05:23;97967.09;;;11.50;76.21
36242;BME280;22283;42.748;12.732;2023-03-13T22:10:24;97974.66;;;11.55;75.31
36242;BME280;22283;42.748;12.732;2023-03-13T22:15:24;97981.66;;;11.56;74.73
36242;BME280;22283;42.748;12.732;2023-03-13T22:20:25;97963.59;;;11.61;74.20
36242;BME280;22283;42.748;12.732;2023-03-13T22:25:26;97956.84;;;11.57;74.03
36242;BME280;22283;42.748;12.732;2023-03-13T22:30:27;97947.84;;;11.48;74.27
36242;BME280;22283;42.748;12.732;2023-03-13T22:35:27;97962.38;;;11.54;74.42
36242;BME280;22283;42.748;12.732;2023-03-13T22:40:28;97943.59;;;11.57;74.86
36242;BME280;22283;42.748;12.732;2023-03-13T22:45:29;97946.13;;;11.58;75.75
36242;BME280;22283;42.748;12.732;2023-03-13T22:50:33;97939.75;;;11.50;76.17
36242;BME280;22283;42.748;12.732;2023-03-13T22:55:33;97937.56;;;11.55;76.00
36242;BME280;22283;42.748;12.732;2023-03-13T23:00:34;97936.22;;;11.72;75.33
36242;BME280;22283;42.748;12.732;2023-03-13T23:05:37;97915.13;;;11.81;74.44
36242;BME280;22283;42.748;12.732;2023-03-13T23:10:41;97925.53;;;11.62;75.02
36242;BME280;22283;42.748;12.732;2023-03-13T23:15:43;97914.22;;;11.60;74.60
36242;BME280;22283;42.748;12.732;2023-03-13T23:20:43;97916.13;;;11.69;73.79
36242;BME280;22283;42.748;12.732;2023-03-13T23:25:44;97905.00;;;11.87;70.71
36242;BME280;22283;42.748;12.732;2023-03-13T23:30:45;97899.00;;;11.73;71.85
36242;BME280;22283;42.748;12.732;2023-03-13T23:35:46;97896.03;;;11.55;72.67
36242;BME280;22283;42.748;12.732;2023-03-13T23:40:46;97892.84;;;11.29;74.66
36242;BME280;22283;42.748;12.732;2023-03-13T23:45:47;97881.63;;;11.37;74.30
36242;BME280;22283;42.748;12.732;2023-03-13T23:50:48;97880.97;;;11.56;73.24
36242;BME280;22283;42.748;12.732;2023-03-13T23:55:56;97879.78;;;11.60;72.73
